Saint Johns, AZ

12:47 PM MST on August 27, 2015 (GMT -0700)
Saint Johns Industrial | | Change Station
CLOSE
Current Station
Airport
Location: St. Johns,
Elevation: 5725 ft
Nearby Weather Stations

Elev 5725 ft 34.52 °N, 109.38 °W | Updated 53 minutes ago

Clear
Clear
79 °F
Feels Like 79 °F
N
6
Wind Variable Wind from WNW

Today
High -- | Low -- °F
--% Chance of Precip.
Yesterday
High -- | Low -- °F
Precip. -- in
5:46 AM 6:50 PM
Waxing Gibbous, 94% visible
Pressure 30.04 in
Visibility 10.0 miles
Clouds Few 4900 ft
Dew Point 57 °F
Humidity 47%
Rainfall 0.08 in
Snow Depth Not available.
UV 11 out of 12
Pollen 6.70 out of 12
Air Quality Not available.
Flu Activity Not available.
METAR KSJN 271854Z AUTO 30005KT 10SM FEW049 26/14 A3031 RMK AO2 LTG DSNT W SLP173 T02610139
Pressure 30.04 in
Visibility 10.0 miles
Clouds Few 4900 ft
Dew Point 57 °F
Humidity 47%
Rainfall 0.08 in
Snow Depth Not available.
UV 11 out of 12
Pollen 6.70 out of 12
Air Quality Not available.
Flu Activity Not available.
METAR KSJN 271854Z AUTO 30005KT 10SM FEW049 26/14 A3031 RMK AO2 LTG DSNT W SLP173 T02610139

10-Day Weather Forecast

×

Almanac

Astronomy

Aug. 27, 2015 Rise Set
Actual Time
Civil Twilight
Nautical Twilight
Astronomical Twilight
Moon
Length of Visible Light
Length of Day
Tomorrow will be .
, % of the Moon is Illuminated

Today's Extremes

State Highs State Lows

Community

WunderPhotos

Upload Photos

1,850,200 photos uploaded!

WunderBlogs® & News

Nearby

Air Quality

  Air Quality AQ Index Pollutant
Not available.

Snow Depth

Station Depth Elevation

Earthquake Activity

City Distance Mag. Time & Date
Minimum magnitude displayed is 2.5.

Coastal Water Temperatures

Place Temperature

Stations

Nearby Weather Stations

Station Location Temp. Windchill Dew Point Humidity Wind Precip. Elev Updated Type